sensor_id;sensor_type;location;lat;lon;timestamp;P1;durP1;ratioP1;P2;durP2;ratioP2
3527;SDS011;1778;47.966;7.854;2022-11-20T00:00:31;4.43;;;4.23;;
3527;SDS011;1778;47.966;7.854;2022-11-20T00:01:33;4.20;;;4.10;;
3527;SDS011;1778;47.966;7.854;2022-11-20T00:02:35;4.03;;;3.93;;
3527;SDS011;1778;47.966;7.854;2022-11-20T00:03:36;4.63;;;4.43;;
3527;SDS011;1778;47.966;7.854;2022-11-20T00:04:38;4.07;;;3.97;;
3527;SDS011;1778;47.966;7.854;2022-11-20T00:05:40;4.57;;;4.47;;
3527;SDS011;1778;47.966;7.854;2022-11-20T00:06:42;4.30;;;4.10;;
3527;SDS011;1778;47.966;7.854;2022-11-20T00:07:43;4.17;;;4.03;;
3527;SDS011;1778;47.966;7.854;2022-11-20T00:08:45;3.90;;;3.80;;
3527;SDS011;1778;47.966;7.854;2022-11-20T00:09:47;3.47;;;3.47;;
3527;SDS011;1778;47.966;7.854;2022-11-20T00:10:48;4.07;;;3.97;;
3527;SDS011;1778;47.966;7.854;2022-11-20T00:11:50;3.77;;;3.67;;
3527;SDS011;1778;47.966;7.854;2022-11-20T00:12:51;3.93;;;3.83;;
3527;SDS011;1778;47.966;7.854;2022-11-20T00:13:54;3.70;;;3.60;;
3527;SDS011;1778;47.966;7.854;2022-11-20T00:14:58;3.90;;;3.80;;
3527;SDS011;1778;47.966;7.854;2022-11-20T00:16:00;4.13;;;4.03;;
3527;SDS011;1778;47.966;7.854;2022-11-20T00:17:03;4.10;;;3.90;;
3527;SDS011;1778;47.966;7.854;2022-11-20T00:18:04;4.07;;;3.87;;
3527;SDS011;1778;47.966;7.854;2022-11-20T00:19:06;3.80;;;3.80;;
3527;SDS011;1778;47.966;7.854;2022-11-20T00:20:08;4.30;;;4.00;;
3527;SDS011;1778;47.966;7.854;2022-11-20T00:21:11;4.13;;;4.03;;
3527;SDS011;1778;47.966;7.854;2022-11-20T00:22:15;3.93;;;3.83;;
3527;SDS011;1778;47.966;7.854;2022-11-20T00:23:16;3.90;;;3.80;;
3527;SDS011;1778;47.966;7.854;2022-11-20T00:24:17;3.23;;;3.23;;
3527;SDS011;1778;47.966;7.854;2022-11-20T00:25:19;3.83;;;3.73;;
3527;SDS011;1778;47.966;7.854;2022-11-20T00:26:21;3.27;;;3.27;;
3527;SDS011;1778;47.966;7.854;2022-11-20T00:27:24;3.50;;;3.47;;
3527;SDS011;1778;47.966;7.854;2022-11-20T00:28:25;3.77;;;3.77;;
3527;SDS011;1778;47.966;7.854;2022-11-20T00:29:26;3.70;;;3.60;;
3527;SDS011;1778;47.966;7.854;2022-11-20T00:30:28;3.40;;;3.40;;
3527;SDS011;1778;47.966;7.854;2022-11-20T00:31:30;3.90;;;3.80;;
3527;SDS011;1778;47.966;7.854;2022-11-20T00:32:31;3.60;;;3.50;;
3527;SDS011;1778;47.966;7.854;2022-11-20T00:33:33;3.53;;;3.50;;
3527;SDS011;1778;47.966;7.854;2022-11-20T00:34:34;3.40;;;3.40;;
3527;SDS011;1778;47.966;7.854;2022-11-20T00:35:36;4.00;;;3.90;;
3527;SDS011;1778;47.966;7.854;2022-11-20T00:36:38;3.40;;;3.40;;
3527;SDS011;1778;47.966;7.854;2022-11-20T00:37:40;3.10;;;3.10;;
3527;SDS011;1778;47.966;7.854;2022-11-20T00:38:41;3.10;;;3.10;;
3527;SDS011;1778;47.966;7.854;2022-11-20T00:39:43;3.20;;;3.10;;
3527;SDS011;1778;47.966;7.854;2022-11-20T00:40:45;3.60;;;3.60;;
3527;SDS011;1778;47.966;7.854;2022-11-20T00:41:52;3.07;;;3.07;;
3527;SDS011;1778;47.966;7.854;2022-11-20T00:42:54;3.07;;;2.97;;
3527;SDS011;1778;47.966;7.854;2022-11-20T00:43:55;3.20;;;3.10;;
3527;SDS011;1778;47.966;7.854;2022-11-20T00:44:57;3.13;;;3.13;;
3527;SDS011;1778;47.966;7.854;2022-11-20T00:45:59;3.33;;;3.33;;
3527;SDS011;1778;47.966;7.854;2022-11-20T00:47:02;2.90;;;2.90;;
3527;SDS011;1778;47.966;7.854;2022-11-20T00:48:03;2.77;;;2.73;;
3527;SDS011;1778;47.966;7.854;2022-11-20T00:49:05;2.83;;;2.83;;
3527;SDS011;1778;47.966;7.854;2022-11-20T00:50:07;3.13;;;3.03;;
3527;SDS011;1778;47.966;7.854;2022-11-20T00:51:09;3.00;;;3.00;;
3527;SDS011;1778;47.966;7.854;2022-11-20T00:52:13;3.30;;;3.20;;
3527;SDS011;1778;47.966;7.854;2022-11-20T00:53:14;3.17;;;3.17;;
3527;SDS011;1778;47.966;7.854;2022-11-20T00:54:16;3.63;;;3.53;;
3527;SDS011;1778;47.966;7.854;2022-11-20T00:55:17;3.10;;;3.10;;
3527;SDS011;1778;47.966;7.854;2022-11-20T00:56:19;3.43;;;3.37;;
3527;SDS011;1778;47.966;7.854;2022-11-20T00:57:21;2.97;;;2.87;;
3527;SDS011;1778;47.966;7.854;2022-11-20T00:58:23;2.87;;;2.87;;
3527;SDS011;1778;47.966;7.854;2022-11-20T00:59:26;2.90;;;2.90;;
3527;SDS011;1778;47.966;7.854;2022-11-20T01:00:28;3.30;;;3.20;;
3527;SDS011;1778;47.966;7.854;2022-11-20T01:01:29;3.43;;;3.33;;
3527;SDS011;1778;47.966;7.854;2022-11-20T01:02:31;3.30;;;3.20;;
3527;SDS011;1778;47.966;7.854;2022-11-20T01:03:33;3.40;;;3.30;;
3527;SDS011;1778;47.966;7.854;2022-11-20T01:04:36;3.63;;;3.50;;
3527;SDS011;1778;47.966;7.854;2022-11-20T01:05:37;4.00;;;3.90;;
3527;SDS011;1778;47.966;7.854;2022-11-20T01:06:39;4.43;;;4.23;;
3527;SDS011;1778;47.966;7.854;2022-11-20T01:07:41;3.63;;;3.53;;
3527;SDS011;1778;47.966;7.854;2022-11-20T01:08:42;3.47;;;3.37;;
3527;SDS011;1778;47.966;7.854;2022-11-20T01:09:45;3.70;;;3.60;;
3527;SDS011;1778;47.966;7.854;2022-11-20T01:10:47;3.60;;;3.50;;
3527;SDS011;1778;47.966;7.854;2022-11-20T01:11:48;3.10;;;3.00;;
3527;SDS011;1778;47.966;7.854;2022-11-20T01:12:50;3.40;;;3.40;;
3527;SDS011;1778;47.966;7.854;2022-11-20T01:14:13;3.47;;;3.43;;
3527;SDS011;1778;47.966;7.854;2022-11-20T01:15:17;3.00;;;3.00;;
3527;SDS011;1778;47.966;7.854;2022-11-20T01:16:20;2.93;;;2.83;;
3527;SDS011;1778;47.966;7.854;2022-11-20T01:17:21;3.10;;;3.00;;
3527;SDS011;1778;47.966;7.854;2022-11-20T01:18:23;3.40;;;3.30;;
3527;SDS011;1778;47.966;7.854;2022-11-20T01:19:24;4.10;;;3.87;;
3527;SDS011;1778;47.966;7.854;2022-11-20T01:20:26;3.33;;;3.30;;
3527;SDS011;1778;47.966;7.854;2022-11-20T01:21:28;3.10;;;3.10;;
3527;SDS011;1778;47.966;7.854;2022-11-20T01:22:31;4.40;;;3.47;;
3527;SDS011;1778;47.966;7.854;2022-11-20T01:23:34;3.53;;;3.43;;
3527;SDS011;1778;47.966;7.854;2022-11-20T01:24:37;2.90;;;2.90;;
3527;SDS011;1778;47.966;7.854;2022-11-20T01:25:38;3.30;;;3.20;;
3527;SDS011;1778;47.966;7.854;2022-11-20T01:26:40;4.00;;;3.90;;
3527;SDS011;1778;47.966;7.854;2022-11-20T01:27:44;3.10;;;3.00;;
3527;SDS011;1778;47.966;7.854;2022-11-20T01:28:46;3.40;;;3.30;;
3527;SDS011;1778;47.966;7.854;2022-11-20T01:29:48;3.17;;;2.97;;
3527;SDS011;1778;47.966;7.854;2022-11-20T01:30:50;2.70;;;2.70;;
3527;SDS011;1778;47.966;7.854;2022-11-20T01:31:51;3.03;;;3.03;;
3527;SDS011;1778;47.966;7.854;2022-11-20T01:32:54;3.63;;;3.43;;
3527;SDS011;1778;47.966;7.854;2022-11-20T01:33:57;3.67;;;3.57;;
3527;SDS011;1778;47.966;7.854;2022-11-20T01:35:00;3.23;;;3.13;;
3527;SDS011;1778;47.966;7.854;2022-11-20T01:36:04;3.30;;;3.20;;
3527;SDS011;1778;47.966;7.854;2022-11-20T01:37:07;3.37;;;3.37;;
3527;SDS011;1778;47.966;7.854;2022-11-20T01:38:08;3.40;;;3.30;;
3527;SDS011;1778;47.966;7.854;2022-11-20T01:39:16;3.43;;;3.33;;
3527;SDS011;1778;47.966;7.854;2022-11-20T01:40:23;3.47;;;3.23;;
3527;SDS011;1778;47.966;7.854;2022-11-20T01:41:26;3.60;;;3.50;;
3527;SDS011;1778;47.966;7.854;2022-11-20T01:42:47;2.80;;;2.80;;
3527;SDS011;1778;47.966;7.854;2022-11-20T01:44:16;3.20;;;3.20;;
3527;SDS011;1778;47.966;7.854;2022-11-20T01:46:58;3.13;;;3.03;;
3527;SDS011;1778;47.966;7.854;2022-11-20T01:48:02;3.30;;;3.30;;
3527;SDS011;1778;47.966;7.854;2022-11-20T01:50:16;3.13;;;2.83;;
3527;SDS011;1778;47.966;7.854;2022-11-20T01:51:32;2.33;;;2.33;;
3527;SDS011;1778;47.966;7.854;2022-11-20T01:53:57;2.70;;;2.70;;
3527;SDS011;1778;47.966;7.854;2022-11-20T01:56:10;2.50;;;2.50;;
3527;SDS011;1778;47.966;7.854;2022-11-20T01:57:14;2.70;;;2.60;;
3527;SDS011;1778;47.966;7.854;2022-11-20T01:58:18;3.00;;;2.80;;
3527;SDS011;1778;47.966;7.854;2022-11-20T01:59:23;3.83;;;3.63;;
3527;SDS011;1778;47.966;7.854;2022-11-20T02:00:26;3.23;;;2.50;;
3527;SDS011;1778;47.966;7.854;2022-11-20T02:01:27;2.50;;;2.50;;
3527;SDS011;1778;47.966;7.854;2022-11-20T02:02:30;3.13;;;3.03;;
3527;SDS011;1778;47.966;7.854;2022-11-20T02:03:32;3.13;;;3.03;;
3527;SDS011;1778;47.966;7.854;2022-11-20T02:04:34;3.27;;;3.27;;
3527;SDS011;1778;47.966;7.854;2022-11-20T02:07:13;2.57;;;2.57;;
3527;SDS011;1778;47.966;7.854;2022-11-20T02:08:15;3.40;;;3.13;;
3527;SDS011;1778;47.966;7.854;2022-11-20T02:09:18;3.30;;;3.20;;
3527;SDS011;1778;47.966;7.854;2022-11-20T02:10:19;3.10;;;3.10;;
3527;SDS011;1778;47.966;7.854;2022-11-20T02:11:22;2.90;;;2.90;;
3527;SDS011;1778;47.966;7.854;2022-11-20T02:12:23;2.53;;;2.53;;
3527;SDS011;1778;47.966;7.854;2022-11-20T02:13:43;3.03;;;2.93;;
3527;SDS011;1778;47.966;7.854;2022-11-20T02:14:46;2.50;;;2.50;;
3527;SDS011;1778;47.966;7.854;2022-11-20T02:15:47;2.87;;;2.83;;
3527;SDS011;1778;47.966;7.854;2022-11-20T02:16:50;3.60;;;3.50;;
3527;SDS011;1778;47.966;7.854;2022-11-20T02:17:52;3.10;;;3.00;;
3527;SDS011;1778;47.966;7.854;2022-11-20T02:18:55;3.10;;;3.00;;
3527;SDS011;1778;47.966;7.854;2022-11-20T02:19:59;2.80;;;2.70;;
3527;SDS011;1778;47.966;7.854;2022-11-20T02:21:13;2.63;;;2.63;;
3527;SDS011;1778;47.966;7.854;2022-11-20T02:22:25;3.53;;;3.33;;
3527;SDS011;1778;47.966;7.854;2022-11-20T02:24:40;2.27;;;2.27;;
3527;SDS011;1778;47.966;7.854;2022-11-20T02:25:44;2.93;;;2.83;;
3527;SDS011;1778;47.966;7.854;2022-11-20T02:26:52;3.10;;;3.00;;
3527;SDS011;1778;47.966;7.854;2022-11-20T02:27:56;2.83;;;2.83;;
3527;SDS011;1778;47.966;7.854;2022-11-20T02:28:58;2.40;;;2.40;;
3527;SDS011;1778;47.966;7.854;2022-11-20T02:30:02;2.63;;;2.63;;
3527;SDS011;1778;47.966;7.854;2022-11-20T02:31:06;2.77;;;2.67;;
3527;SDS011;1778;47.966;7.854;2022-11-20T02:32:21;2.60;;;2.60;;
3527;SDS011;1778;47.966;7.854;2022-11-20T02:33:24;2.90;;;2.80;;
3527;SDS011;1778;47.966;7.854;2022-11-20T02:34:26;2.40;;;2.40;;
3527;SDS011;1778;47.966;7.854;2022-11-20T02:36:29;2.87;;;2.87;;
3527;SDS011;1778;47.966;7.854;2022-11-20T02:37:34;2.37;;;2.37;;
3527;SDS011;1778;47.966;7.854;2022-11-20T02:38:40;2.47;;;2.33;;
3527;SDS011;1778;47.966;7.854;2022-11-20T02:39:43;2.53;;;2.53;;
3527;SDS011;1778;47.966;7.854;2022-11-20T02:40:48;2.40;;;2.40;;
3527;SDS011;1778;47.966;7.854;2022-11-20T02:41:55;2.90;;;2.83;;
3527;SDS011;1778;47.966;7.854;2022-11-20T02:42:58;2.73;;;2.73;;
3527;SDS011;1778;47.966;7.854;2022-11-20T02:43:59;2.63;;;2.63;;
3527;SDS011;1778;47.966;7.854;2022-11-20T02:45:01;2.80;;;2.80;;
3527;SDS011;1778;47.966;7.854;2022-11-20T02:46:02;3.23;;;3.13;;
3527;SDS011;1778;47.966;7.854;2022-11-20T02:47:07;2.73;;;2.73;;
3527;SDS011;1778;47.966;7.854;2022-11-20T02:48:09;4.87;;;3.13;;
3527;SDS011;1778;47.966;7.854;2022-11-20T02:49:10;2.87;;;2.77;;
3527;SDS011;1778;47.966;7.854;2022-11-20T02:50:12;3.90;;;2.70;;
3527;SDS011;1778;47.966;7.854;2022-11-20T02:51:14;3.10;;;2.90;;
3527;SDS011;1778;47.966;7.854;2022-11-20T02:52:15;2.33;;;2.33;;
3527;SDS011;1778;47.966;7.854;2022-11-20T02:53:17;2.50;;;2.50;;
3527;SDS011;1778;47.966;7.854;2022-11-20T02:54:18;2.70;;;2.57;;
3527;SDS011;1778;47.966;7.854;2022-11-20T02:55:20;2.43;;;2.33;;
3527;SDS011;1778;47.966;7.854;2022-11-20T02:56:21;2.23;;;2.23;;
3527;SDS011;1778;47.966;7.854;2022-11-20T02:57:23;2.60;;;2.60;;
3527;SDS011;1778;47.966;7.854;2022-11-20T02:58:25;2.60;;;2.60;;
3527;SDS011;1778;47.966;7.854;2022-11-20T02:59:26;2.50;;;2.50;;
3527;SDS011;1778;47.966;7.854;2022-11-20T03:00:28;2.77;;;2.70;;
3527;SDS011;1778;47.966;7.854;2022-11-20T03:01:29;2.80;;;2.77;;
3527;SDS011;1778;47.966;7.854;2022-11-20T03:02:31;2.60;;;2.60;;
3527;SDS011;1778;47.966;7.854;2022-11-20T03:03:34;2.50;;;2.50;;
3527;SDS011;1778;47.966;7.854;2022-11-20T03:04:35;2.57;;;2.57;;
3527;SDS011;1778;47.966;7.854;2022-11-20T03:05:37;2.77;;;2.77;;
3527;SDS011;1778;47.966;7.854;2022-11-20T03:06:39;2.20;;;2.20;;
3527;SDS011;1778;47.966;7.854;2022-11-20T03:07:41;2.30;;;2.30;;
3527;SDS011;1778;47.966;7.854;2022-11-20T03:08:44;2.97;;;2.77;;
3527;SDS011;1778;47.966;7.854;2022-11-20T03:09:45;2.50;;;2.50;;
3527;SDS011;1778;47.966;7.854;2022-11-20T03:10:47;2.30;;;2.30;;
3527;SDS011;1778;47.966;7.854;2022-11-20T03:11:48;2.53;;;2.53;;
3527;SDS011;1778;47.966;7.854;2022-11-20T03:12:55;2.43;;;2.33;;
3527;SDS011;1778;47.966;7.854;2022-11-20T03:13:57;2.23;;;2.20;;
3527;SDS011;1778;47.966;7.854;2022-11-20T03:15:02;2.00;;;2.00;;
3527;SDS011;1778;47.966;7.854;2022-11-20T03:16:05;2.43;;;2.43;;
3527;SDS011;1778;47.966;7.854;2022-11-20T03:17:08;3.13;;;3.03;;
3527;SDS011;1778;47.966;7.854;2022-11-20T03:18:10;2.30;;;2.30;;
3527;SDS011;1778;47.966;7.854;2022-11-20T03:19:12;3.50;;;3.20;;
3527;SDS011;1778;47.966;7.854;2022-11-20T03:20:13;2.60;;;2.50;;
3527;SDS011;1778;47.966;7.854;2022-11-20T03:21:15;2.87;;;2.77;;
3527;SDS011;1778;47.966;7.854;2022-11-20T03:22:17;2.27;;;2.27;;
3527;SDS011;1778;47.966;7.854;2022-11-20T03:23:19;2.70;;;2.60;;
3527;SDS011;1778;47.966;7.854;2022-11-20T03:24:20;2.50;;;2.50;;
3527;SDS011;1778;47.966;7.854;2022-11-20T03:25:22;2.30;;;2.30;;
3527;SDS011;1778;47.966;7.854;2022-11-20T03:26:24;3.10;;;3.00;;
3527;SDS011;1778;47.966;7.854;2022-11-20T03:27:31;2.13;;;2.13;;
3527;SDS011;1778;47.966;7.854;2022-11-20T03:28:35;2.10;;;2.10;;
3527;SDS011;1778;47.966;7.854;2022-11-20T03:29:37;2.97;;;2.87;;
3527;SDS011;1778;47.966;7.854;2022-11-20T03:30:39;2.30;;;2.30;;
3527;SDS011;1778;47.966;7.854;2022-11-20T03:31:42;2.30;;;2.30;;
3527;SDS011;1778;47.966;7.854;2022-11-20T03:32:43;2.40;;;2.40;;
3527;SDS011;1778;47.966;7.854;2022-11-20T03:33:45;2.40;;;2.30;;
3527;SDS011;1778;47.966;7.854;2022-11-20T03:34:46;2.20;;;2.20;;
3527;SDS011;1778;47.966;7.854;2022-11-20T03:35:48;2.97;;;2.87;;
3527;SDS011;1778;47.966;7.854;2022-11-20T03:36:49;2.10;;;2.10;;
3527;SDS011;1778;47.966;7.854;2022-11-20T03:37:51;2.07;;;2.07;;
3527;SDS011;1778;47.966;7.854;2022-11-20T03:38:53;2.27;;;2.27;;
3527;SDS011;1778;47.966;7.854;2022-11-20T03:39:56;2.03;;;2.03;;
3527;SDS011;1778;47.966;7.854;2022-11-20T03:40:58;2.70;;;2.50;;
3527;SDS011;1778;47.966;7.854;2022-11-20T03:42:04;3.03;;;2.83;;
3527;SDS011;1778;47.966;7.854;2022-11-20T03:43:26;2.80;;;2.70;;
3527;SDS011;1778;47.966;7.854;2022-11-20T03:44:29;2.10;;;2.10;;
3527;SDS011;1778;47.966;7.854;2022-11-20T03:45:30;2.47;;;2.47;;
3527;SDS011;1778;47.966;7.854;2022-11-20T03:46:32;2.40;;;2.30;;
3527;SDS011;1778;47.966;7.854;2022-11-20T03:47:33;2.23;;;2.23;;
3527;SDS011;1778;47.966;7.854;2022-11-20T03:48:35;2.03;;;2.03;;
3527;SDS011;1778;47.966;7.854;2022-11-20T03:49:36;2.20;;;2.20;;
3527;SDS011;1778;47.966;7.854;2022-11-20T03:50:38;2.57;;;2.47;;
3527;SDS011;1778;47.966;7.854;2022-11-20T03:51:40;2.50;;;2.50;;
3527;SDS011;1778;47.966;7.854;2022-11-20T03:52:41;2.40;;;2.40;;
3527;SDS011;1778;47.966;7.854;2022-11-20T03:53:43;2.47;;;2.47;;
3527;SDS011;1778;47.966;7.854;2022-11-20T03:54:46;2.33;;;2.33;;
3527;SDS011;1778;47.966;7.854;2022-11-20T03:55:51;2.60;;;2.50;;
3527;SDS011;1778;47.966;7.854;2022-11-20T03:56:52;5.90;;;3.10;;
3527;SDS011;1778;47.966;7.854;2022-11-20T03:57:54;2.03;;;2.03;;
3527;SDS011;1778;47.966;7.854;2022-11-20T03:58:55;2.33;;;2.33;;
3527;SDS011;1778;47.966;7.854;2022-11-20T03:59:57;2.30;;;2.30;;
3527;SDS011;1778;47.966;7.854;2022-11-20T04:01:04;2.37;;;2.37;;
3527;SDS011;1778;47.966;7.854;2022-11-20T04:02:07;2.30;;;2.20;;
3527;SDS011;1778;47.966;7.854;2022-11-20T04:03:08;2.80;;;2.73;;
3527;SDS011;1778;47.966;7.854;2022-11-20T04:04:10;2.03;;;2.03;;
3527;SDS011;1778;47.966;7.854;2022-11-20T04:05:11;2.60;;;2.60;;
3527;SDS011;1778;47.966;7.854;2022-11-20T04:06:17;2.00;;;2.00;;
3527;SDS011;1778;47.966;7.854;2022-11-20T04:07:20;2.20;;;2.20;;
3527;SDS011;1778;47.966;7.854;2022-11-20T04:08:21;3.87;;;2.50;;
3527;SDS011;1778;47.966;7.854;2022-11-20T04:09:23;2.57;;;2.57;;
3527;SDS011;1778;47.966;7.854;2022-11-20T04:10:24;2.30;;;2.30;;
3527;SDS011;1778;47.966;7.854;2022-11-20T04:11:27;3.07;;;2.97;;
3527;SDS011;1778;47.966;7.854;2022-11-20T04:12:33;2.20;;;2.20;;
3527;SDS011;1778;47.966;7.854;2022-11-20T04:13:34;2.77;;;2.67;;
3527;SDS011;1778;47.966;7.854;2022-11-20T04:14:36;2.37;;;2.33;;
3527;SDS011;1778;47.966;7.854;2022-11-20T04:15:37;2.23;;;2.23;;
3527;SDS011;1778;47.966;7.854;2022-11-20T04:16:39;2.80;;;2.20;;
3527;SDS011;1778;47.966;7.854;2022-11-20T04:17:40;2.50;;;2.50;;
3527;SDS011;1778;47.966;7.854;2022-11-20T04:18:42;2.30;;;2.20;;
3527;SDS011;1778;47.966;7.854;2022-11-20T04:19:44;2.20;;;2.20;;
3527;SDS011;1778;47.966;7.854;2022-11-20T04:20:45;2.57;;;2.57;;
3527;SDS011;1778;47.966;7.854;2022-11-20T04:21:47;3.13;;;3.07;;
3527;SDS011;1778;47.966;7.854;2022-11-20T04:22:48;2.10;;;2.10;;
3527;SDS011;1778;47.966;7.854;2022-11-20T04:23:50;2.30;;;2.30;;
3527;SDS011;1778;47.966;7.854;2022-11-20T04:24:53;2.33;;;2.23;;
3527;SDS011;1778;47.966;7.854;2022-11-20T04:26:00;2.70;;;2.60;;
3527;SDS011;1778;47.966;7.854;2022-11-20T04:27:09;2.30;;;2.30;;
3527;SDS011;1778;47.966;7.854;2022-11-20T04:28:10;2.30;;;2.30;;
3527;SDS011;1778;47.966;7.854;2022-11-20T04:29:12;2.70;;;2.63;;
3527;SDS011;1778;47.966;7.854;2022-11-20T04:30:14;2.37;;;2.27;;
3527;SDS011;1778;47.966;7.854;2022-11-20T04:31:17;2.33;;;2.23;;
3527;SDS011;1778;47.966;7.854;2022-11-20T04:32:20;2.40;;;2.40;;
3527;SDS011;1778;47.966;7.854;2022-11-20T04:33:21;2.30;;;2.30;;
3527;SDS011;1778;47.966;7.854;2022-11-20T04:34:23;2.50;;;2.50;;
3527;SDS011;1778;47.966;7.854;2022-11-20T04:35:24;2.40;;;2.40;;
3527;SDS011;1778;47.966;7.854;2022-11-20T04:36:26;2.50;;;2.30;;
3527;SDS011;1778;47.966;7.854;2022-11-20T04:37:29;2.13;;;2.13;;
3527;SDS011;1778;47.966;7.854;2022-11-20T04:38:30;2.23;;;2.23;;
3527;SDS011;1778;47.966;7.854;2022-11-20T04:39:32;2.27;;;2.20;;
3527;SDS011;1778;47.966;7.854;2022-11-20T04:40:34;1.90;;;1.90;;
3527;SDS011;1778;47.966;7.854;2022-11-20T04:41:36;2.47;;;2.37;;
3527;SDS011;1778;47.966;7.854;2022-11-20T04:42:37;2.10;;;2.10;;
3527;SDS011;1778;47.966;7.854;2022-11-20T04:43:39;2.10;;;2.00;;
3527;SDS011;1778;47.966;7.854;2022-11-20T04:44:40;2.43;;;2.37;;
3527;SDS011;1778;47.966;7.854;2022-11-20T04:45:42;2.00;;;2.00;;
3527;SDS011;1778;47.966;7.854;2022-11-20T04:46:43;2.60;;;2.60;;
3527;SDS011;1778;47.966;7.854;2022-11-20T04:47:45;2.33;;;2.33;;
3527;SDS011;1778;47.966;7.854;2022-11-20T04:48:47;1.90;;;1.90;;
3527;SDS011;1778;47.966;7.854;2022-11-20T04:49:48;2.40;;;2.40;;
3527;SDS011;1778;47.966;7.854;2022-11-20T04:50:50;1.90;;;1.90;;
3527;SDS011;1778;47.966;7.854;2022-11-20T04:51:55;2.17;;;2.17;;
3527;SDS011;1778;47.966;7.854;2022-11-20T04:52:56;2.43;;;2.40;;
3527;SDS011;1778;47.966;7.854;2022-11-20T04:53:58;2.20;;;2.20;;
3527;SDS011;1778;47.966;7.854;2022-11-20T04:55:00;2.17;;;2.17;;
3527;SDS011;1778;47.966;7.854;2022-11-20T04:56:02;2.30;;;1.93;;
3527;SDS011;1778;47.966;7.854;2022-11-20T04:57:06;2.57;;;2.37;;
3527;SDS011;1778;47.966;7.854;2022-11-20T04:58:14;2.00;;;2.00;;
3527;SDS011;1778;47.966;7.854;2022-11-20T04:59:17;2.87;;;2.77;;
3527;SDS011;1778;47.966;7.854;2022-11-20T05:00:19;2.33;;;2.30;;
3527;SDS011;1778;47.966;7.854;2022-11-20T05:01:22;1.90;;;1.90;;
3527;SDS011;1778;47.966;7.854;2022-11-20T05:02:25;2.60;;;2.40;;
3527;SDS011;1778;47.966;7.854;2022-11-20T05:03:26;2.67;;;2.50;;
3527;SDS011;1778;47.966;7.854;2022-11-20T05:04:28;2.03;;;2.03;;
3527;SDS011;1778;47.966;7.854;2022-11-20T05:05:30;2.53;;;2.33;;
3527;SDS011;1778;47.966;7.854;2022-11-20T05:06:31;1.97;;;1.97;;
3527;SDS011;1778;47.966;7.854;2022-11-20T05:07:33;6.40;;;2.37;;
3527;SDS011;1778;47.966;7.854;2022-11-20T05:08:35;2.40;;;2.40;;
3527;SDS011;1778;47.966;7.854;2022-11-20T05:09:36;2.37;;;2.37;;
3527;SDS011;1778;47.966;7.854;2022-11-20T05:10:38;2.03;;;2.03;;
3527;SDS011;1778;47.966;7.854;2022-11-20T05:11:39;1.97;;;1.97;;
3527;SDS011;1778;47.966;7.854;2022-11-20T05:12:41;2.60;;;2.50;;
3527;SDS011;1778;47.966;7.854;2022-11-20T05:13:42;2.20;;;2.20;;
3527;SDS011;1778;47.966;7.854;2022-11-20T05:14:44;2.10;;;2.10;;
3527;SDS011;1778;47.966;7.854;2022-11-20T05:15:46;2.20;;;2.20;;
3527;SDS011;1778;47.966;7.854;2022-11-20T05:16:48;1.90;;;1.90;;
3527;SDS011;1778;47.966;7.854;2022-11-20T05:17:50;2.17;;;2.07;;
3527;SDS011;1778;47.966;7.854;2022-11-20T05:18:53;2.03;;;2.03;;
3527;SDS011;1778;47.966;7.854;2022-11-20T05:19:55;1.93;;;1.93;;
3527;SDS011;1778;47.966;7.854;2022-11-20T05:20:57;2.27;;;2.17;;
3527;SDS011;1778;47.966;7.854;2022-11-20T05:21:59;2.10;;;2.10;;
3527;SDS011;1778;47.966;7.854;2022-11-20T05:23:00;1.90;;;1.90;;
3527;SDS011;1778;47.966;7.854;2022-11-20T05:24:02;1.93;;;1.93;;
3527;SDS011;1778;47.966;7.854;2022-11-20T05:25:04;3.80;;;2.27;;
3527;SDS011;1778;47.966;7.854;2022-11-20T05:26:06;2.17;;;2.17;;
3527;SDS011;1778;47.966;7.854;2022-11-20T05:27:12;2.50;;;2.50;;
3527;SDS011;1778;47.966;7.854;2022-11-20T05:28:14;2.00;;;2.00;;
3527;SDS011;1778;47.966;7.854;2022-11-20T05:29:15;2.10;;;2.10;;
3527;SDS011;1778;47.966;7.854;2022-11-20T05:30:17;1.90;;;1.90;;
3527;SDS011;1778;47.966;7.854;2022-11-20T05:31:22;2.00;;;2.00;;
3527;SDS011;1778;47.966;7.854;2022-11-20T05:32:28;1.90;;;1.90;;
3527;SDS011;1778;47.966;7.854;2022-11-20T05:33:29;1.80;;;1.80;;
3527;SDS011;1778;47.966;7.854;2022-11-20T05:34:31;2.27;;;2.20;;
3527;SDS011;1778;47.966;7.854;2022-11-20T05:35:33;2.10;;;2.10;;
3527;SDS011;1778;47.966;7.854;2022-11-20T05:36:34;2.00;;;2.00;;
3527;SDS011;1778;47.966;7.854;2022-11-20T05:37:36;1.80;;;1.80;;
3527;SDS011;1778;47.966;7.854;2022-11-20T05:38:38;1.73;;;1.73;;
3527;SDS011;1778;47.966;7.854;2022-11-20T05:39:40;1.93;;;1.93;;
3527;SDS011;1778;47.966;7.854;2022-11-20T05:40:41;8.43;;;2.23;;
3527;SDS011;1778;47.966;7.854;2022-11-20T05:41:43;2.20;;;2.13;;
3527;SDS011;1778;47.966;7.854;2022-11-20T05:42:44;2.17;;;2.17;;
3527;SDS011;1778;47.966;7.854;2022-11-20T05:43:46;2.53;;;2.53;;
3527;SDS011;1778;47.966;7.854;2022-11-20T05:44:48;1.80;;;1.80;;
3527;SDS011;1778;47.966;7.854;2022-11-20T05:45:53;2.13;;;2.13;;
3527;SDS011;1778;47.966;7.854;2022-11-20T05:46:55;2.20;;;2.10;;
3527;SDS011;1778;47.966;7.854;2022-11-20T05:47:59;2.20;;;2.20;;
3527;SDS011;1778;47.966;7.854;2022-11-20T05:49:01;2.23;;;2.23;;
3527;SDS011;1778;47.966;7.854;2022-11-20T05:50:03;2.20;;;2.20;;
3527;SDS011;1778;47.966;7.854;2022-11-20T05:51:06;2.20;;;2.20;;
3527;SDS011;1778;47.966;7.854;2022-11-20T05:52:09;2.17;;;2.17;;
3527;SDS011;1778;47.966;7.854;2022-11-20T05:53:10;2.07;;;2.07;;
3527;SDS011;1778;47.966;7.854;2022-11-20T05:54:12;1.90;;;1.90;;
3527;SDS011;1778;47.966;7.854;2022-11-20T05:55:14;1.97;;;1.97;;
3527;SDS011;1778;47.966;7.854;2022-11-20T05:56:16;2.77;;;2.43;;
3527;SDS011;1778;47.966;7.854;2022-11-20T05:57:19;1.80;;;1.80;;
3527;SDS011;1778;47.966;7.854;2022-11-20T05:58:21;2.50;;;2.40;;
3527;SDS011;1778;47.966;7.854;2022-11-20T05:59:22;2.07;;;2.07;;
3527;SDS011;1778;47.966;7.854;2022-11-20T06:00:24;1.97;;;1.97;;
3527;SDS011;1778;47.966;7.854;2022-11-20T06:01:25;1.87;;;1.87;;
3527;SDS011;1778;47.966;7.854;2022-11-20T06:02:27;2.27;;;2.27;;
3527;SDS011;1778;47.966;7.854;2022-11-20T06:03:28;1.80;;;1.80;;
3527;SDS011;1778;47.966;7.854;2022-11-20T06:04:30;2.30;;;2.30;;
3527;SDS011;1778;47.966;7.854;2022-11-20T06:05:33;2.73;;;2.63;;
3527;SDS011;1778;47.966;7.854;2022-11-20T06:06:34;2.20;;;2.20;;
3527;SDS011;1778;47.966;7.854;2022-11-20T06:07:36;2.67;;;2.47;;
3527;SDS011;1778;47.966;7.854;2022-11-20T06:08:38;1.90;;;1.80;;
3527;SDS011;1778;47.966;7.854;2022-11-20T06:09:40;2.20;;;2.20;;
3527;SDS011;1778;47.966;7.854;2022-11-20T06:10:41;1.90;;;1.90;;
3527;SDS011;1778;47.966;7.854;2022-11-20T06:11:43;2.07;;;2.07;;
3527;SDS011;1778;47.966;7.854;2022-11-20T06:12:45;1.70;;;1.70;;
3527;SDS011;1778;47.966;7.854;2022-11-20T06:13:46;2.30;;;2.30;;
3527;SDS011;1778;47.966;7.854;2022-11-20T06:14:49;2.20;;;2.20;;
3527;SDS011;1778;47.966;7.854;2022-11-20T06:15:51;1.80;;;1.80;;
3527;SDS011;1778;47.966;7.854;2022-11-20T06:16:54;1.90;;;1.90;;
3527;SDS011;1778;47.966;7.854;2022-11-20T06:17:56;1.63;;;1.63;;
3527;SDS011;1778;47.966;7.854;2022-11-20T06:18:57;2.00;;;2.00;;
3527;SDS011;1778;47.966;7.854;2022-11-20T06:19:59;2.13;;;2.13;;
3527;SDS011;1778;47.966;7.854;2022-11-20T06:21:01;2.17;;;2.17;;
3527;SDS011;1778;47.966;7.854;2022-11-20T06:22:06;1.90;;;1.90;;
3527;SDS011;1778;47.966;7.854;2022-11-20T06:23:08;2.13;;;2.13;;
3527;SDS011;1778;47.966;7.854;2022-11-20T06:24:09;2.03;;;2.03;;
3527;SDS011;1778;47.966;7.854;2022-11-20T06:25:11;2.07;;;1.97;;
3527;SDS011;1778;47.966;7.854;2022-11-20T06:26:14;1.97;;;1.97;;
3527;SDS011;1778;47.966;7.854;2022-11-20T06:27:21;1.97;;;1.97;;
3527;SDS011;1778;47.966;7.854;2022-11-20T06:28:22;2.47;;;2.47;;
3527;SDS011;1778;47.966;7.854;2022-11-20T06:29:24;2.20;;;2.20;;
3527;SDS011;1778;47.966;7.854;2022-11-20T06:30:32;2.07;;;2.07;;
3527;SDS011;1778;47.966;7.854;2022-11-20T06:31:34;3.00;;;2.87;;
3527;SDS011;1778;47.966;7.854;2022-11-20T06:32:38;1.97;;;1.87;;
3527;SDS011;1778;47.966;7.854;2022-11-20T06:33:40;2.00;;;2.00;;
3527;SDS011;1778;47.966;7.854;2022-11-20T06:34:43;1.97;;;1.97;;
3527;SDS011;1778;47.966;7.854;2022-11-20T06:35:44;1.87;;;1.87;;
3527;SDS011;1778;47.966;7.854;2022-11-20T06:36:46;1.90;;;1.90;;
3527;SDS011;1778;47.966;7.854;2022-11-20T06:37:47;2.23;;;2.23;;
3527;SDS011;1778;47.966;7.854;2022-11-20T06:38:49;1.80;;;1.80;;